Home > Products > Valid Products > TAF

000
FTUS42 KRAH 221139
TAFFAY
TAF
KFAY 221139Z 2212/2312 32008KT P6SM SKC
     FM221430 33012G20KT P6SM SCT050
     FM222230 32008KT P6SM SKC=



000
FTUS42 KRAH 221139
TAFRDU
TAF
KRDU 221139Z 2212/2312 32009KT P6SM FEW045 FEW070
     FM221430 32012G20KT P6SM SCT035 BKN060
     FM222230 33008KT P6SM SCT050=



000
FTUS42 KRAH 221139
TAFRWI
TAF
KRWI 221139Z 2212/2312 32010KT P6SM FEW035 SCT070
     FM221430 32013G23KT P6SM VCSH BKN035
      TEMPO 2215/2219 6SM -SHRA SCT025 OVC035
     FM222230 33009KT P6SM SCT040=



000
FTUS42 KRAH 221139
TAFINT
TAF
KINT 221139Z 2212/2312 32009KT P6SM SKC
     FM221430 33012G22KT P6SM FEW045
     FM222230 33008KT P6SM SKC=



000
FTUS42 KRAH 221139
TAFGSO
TAF
KGSO 221139Z 2212/2312 32009KT P6SM SKC
     FM221430 33012G22KT P6SM FEW045
     FM222230 33008KT P6SM SKC=



000
FTUS42 KRAH 220837 AAA
TAFRDU
TAF AMD
KRDU 220837Z 2209/2306 32007KT P6SM SCT045 SCT080
     FM221430 32012G20KT P6SM FEW035 SCT050
     FM222200 33009KT P6SM SKC=



000
FTUS42 KRAH 220837 AAA
TAFGSO
TAF AMD
KGSO 220837Z 2209/2306 32006KT P6SM FEW100
     FM221430 33012G22KT P6SM FEW045
     FM222200 33009KT P6SM SKC=



000
FTUS42 KRAH 220837 AAA
TAFINT
TAF AMD
KINT 220837Z 2209/2306 32006KT P6SM FEW100
     FM221430 33012G22KT P6SM FEW045
     FM222200 33009KT P6SM SKC=



000
FTUS42 KRAH 220835 AAA
TAFRWI
TAF AMD
KRWI 220835Z 2209/2306 31008KT 6SM -SHRA SCT030 BKN050 BKN080
     FM220900 30007KT P6SM SCT030 BKN050 BKN080
     FM221430 32013G23KT P6SM VCSH BKN035
      TEMPO 2216/2219 6SM -SHRA SCT025 OVC035
     FM222200 33009KT P6SM SCT040=



000
FTUS42 KRAH 220540
TAFINT
TAF
KINT 220540Z 2206/2306 32007KT P6SM FEW100
     FM221430 33012G22KT P6SM FEW045
     FM222200 33009KT P6SM SKC=



000
FTUS42 KRAH 220540
TAFRWI
TAF
KRWI 220540Z 2206/2306 32008KT P6SM VCSH FEW060 BKN080 BKN110
     FM221430 32013G23KT P6SM BKN035 PROB30 2215/2221 6SM -SHRA
      SCT025 OVC035
     FM222200 33009KT P6SM SCT040=



000
FTUS42 KRAH 220540
TAFFAY
TAF
KFAY 220540Z 2206/2306 33008G15KT P6SM BKN080
     FM221430 32012G20KT P6SM FEW040
     FM222200 33009KT P6SM SKC=



000
FTUS42 KRAH 220540
TAFRDU
TAF
KRDU 220540Z 2206/2306 32007KT P6SM BKN080
     FM221430 32012G20KT P6SM FEW035 SCT050
     FM222200 33009KT P6SM SKC=



000
FTUS42 KRAH 220540
TAFGSO
TAF
KGSO 220540Z 2206/2306 32007KT P6SM FEW100
     FM221430 33012G22KT P6SM FEW045
     FM222200 33009KT P6SM SKC=



000
FTUS42 KRAH 220540
TAFRWI
TAF
KRWI 220540Z 2206/2306 32008KT P6SM VCSH FEW060 BKN080 BKN110
     FM221430 32013G23KT P6SM BKN035 PROB30 2215/2221 6SM -SHRA
      SCT025 OVC035
     FM222200 33009KT P6SM SCT040=



000
FTUS42 KRAH 220540
TAFGSO
TAF
KGSO 220540Z 2206/2306 32007KT P6SM FEW100
     FM221430 33012G22KT P6SM FEW045
     FM222200 33009KT P6SM SKC=



000
FTUS42 KRAH 220540
TAFINT
TAF
KINT 220540Z 2206/2306 32007KT P6SM FEW100
     FM221430 33012G22KT P6SM FEW045
     FM222200 33009KT P6SM SKC=



000
FTUS42 KRAH 220540
TAFRDU
TAF
KRDU 220540Z 2206/2306 32007KT P6SM BKN080
     FM221430 32012G20KT P6SM FEW035 SCT050
     FM222200 33009KT P6SM SKC=



000
FTUS42 KRAH 220540
TAFFAY
TAF
KFAY 220540Z 2206/2306 33008G15KT P6SM BKN080
     FM221430 32012G20KT P6SM FEW040
     FM222200 33009KT P6SM SKC=



000
FTUS42 KRAH 220300 AAA
TAFRWI
TAF AMD
KRWI 220300Z 2203/2224 30009KT P6SM BKN060
      TEMPO 2203/2205 32011G20KT
     FM221600 32012G20KT P6SM BKN035=



000
FTUS42 KRAH 220201 AAA
TAFRDU
TAF AMD
KRDU 220201Z 2202/2224 32010KT P6SM SCT060
      TEMPO 2202/2204 32011G20KT
     FM221600 32012G20KT P6SM SCT050=



000
FTUS42 KRAH 220201 AAA
TAFRDU
TAF AMD
KRDU 220201Z 2202/2224 32010KT P6SM SCT060
      TEMPO 2202/2204 32011G20KT
     FM221600 32012G20KT P6SM SCT050=



000
FTUS42 KRAH 220200 AAA
TAFINT
TAF AMD
KINT 220200Z 2202/2224 32010KT P6SM FEW040
      TEMPO 2202/2204 32011G20KT
     FM221600 33012G22KT P6SM FEW030=



000
FTUS42 KRAH 220200 AAA
TAFINT
TAF AMD
KINT 220200Z 2202/2224 32010KT P6SM FEW040
      TEMPO 2202/2204 32011G20KT
     FM221600 33012G22KT P6SM FEW030=



000
FTUS42 KRAH 220200 AAA
TAFGSO
TAF AMD
KGSO 220200Z 2202/2224 32010KT P6SM SCT040
      TEMPO 2202/2204 32011G20KT
     FM221600 33012G22KT P6SM FEW030=



000
FTUS42 KRAH 220200 AAA
TAFGSO
TAF AMD
KGSO 220200Z 2202/2224 32010KT P6SM SCT040
      TEMPO 2202/2204 32011G20KT
     FM221600 33012G22KT P6SM FEW030=



000
FTUS42 KRAH 212329
TAFINT
TAF
KINT 212329Z 2200/2224 32010KT P6SM FEW040
     FM221600 33012G22KT P6SM FEW030=



000
FTUS42 KRAH 212329
TAFGSO
TAF
KGSO 212329Z 2200/2224 32010KT P6SM FEW040
     FM221600 33012G22KT P6SM FEW030=



000
FTUS42 KRAH 212329
TAFFAY
TAF
KFAY 212329Z 2200/2224 26005KT P6SM SCT050
     FM220200 31010KT P6SM SCT060
     FM221600 32012G22KT P6SM FEW045=



000
FTUS42 KRAH 212329
TAFRDU
TAF
KRDU 212329Z 2200/2224 32010KT P6SM SCT060
     FM221600 32012G20KT P6SM SCT050=



000
FTUS42 KRAH 212329
TAFRWI
TAF
KRWI 212329Z 2200/2224 26005KT P6SM SCT050
     FM220100 30009KT P6SM BKN060
     FM221600 32012G20KT P6SM BKN035=



000
FTUS42 KRAH 212124 AAA
TAFINT
TAF AMD
KINT 212124Z 2121/2218 32012G22KT P6SM FEW040
     FM221600 33012G22KT P6SM FEW030=



000
FTUS42 KRAH 212004 AAA
TAFGSO
TAF AMD
KGSO 212004Z 2120/2218 31010G16KT P6SM SCT050
      TEMPO 2120/2123 BKN040
     FM212300 32012G22KT P6SM FEW040
     FM221600 33012G22KT P6SM FEW030=



000
FTUS42 KRAH 211733
TAFRWI
TAF
KRWI 211733Z 2118/2218 24008KT P6SM SCT050
     FM220100 30009G17KT P6SM BKN060
     FM220500 30010KT P6SM SKC
     FM221600 32012G20KT P6SM BKN035=



000
FTUS42 KRAH 211733
TAFFAY
TAF
KFAY 211733Z 2118/2218 25008KT P6SM SCT050
     FM220200 31010G18KT P6SM BKN060
     FM220800 32010KT P6SM SKC
     FM221600 32012G22KT P6SM FEW045=



000
FTUS42 KRAH 211733
TAFINT
TAF
KINT 211733Z 2118/2218 28010G16KT P6SM SCT050
      TEMPO 2119/2122 BKN040
     FM212200 32012G22KT P6SM FEW040
     FM221600 33012G22KT P6SM FEW030=



000
FTUS42 KRAH 211733
TAFRDU
TAF
KRDU 211733Z 2118/2218 23008KT P6SM SCT045
      TEMPO 2122/2201 BKN050
     FM220100 32010G20KT P6SM BKN060
     FM221000 31010G16KT P6SM FEW035
     FM221600 32012G20KT P6SM FEW040=



000
FTUS42 KRAH 211733
TAFGSO
TAF
KGSO 211733Z 2118/2218 28010G16KT P6SM SCT050
      TEMPO 2120/2123 BKN040
     FM212300 32012G22KT P6SM FEW040
     FM221600 33012G22KT P6SM FEW030=



000
FTUS42 KRAH 211140
TAFGSO
TAF
KGSO 211140Z 2112/2212 27007KT P6SM FEW110
     FM211900 29012G18KT P6SM BKN050
     FM212300 33009KT P6SM FEW100=



000
FTUS42 KRAH 211140
TAFINT
TAF
KINT 211140Z 2112/2212 27007KT P6SM FEW110
     FM211900 29012G18KT P6SM BKN050
     FM212300 33009KT P6SM FEW100=



000
FTUS42 KRAH 211140
TAFRWI
TAF
KRWI 211140Z 2112/2212 25007KT P6SM FEW110 SCT250
     FM212100 28009KT P6SM BKN060 PROB30 2123/2203 6SM -SHRA SCT045
      BKN060=



000
FTUS42 KRAH 211140
TAFFAY
TAF
KFAY 211140Z 2112/2212 26007KT P6SM FEW110
     FM220000 32008KT P6SM BKN060=



000
FTUS42 KRAH 211140
TAFRDU
TAF
KRDU 211140Z 2112/2212 26007KT P6SM FEW110 SCT250
     FM212100 28009G16KT P6SM BKN060
     FM220000 33007KT P6SM SCT060 BKN080=



000
FTUS42 KRAH 211140
TAFRWI
TAF
KRWI 211140Z 2112/2212 25007KT P6SM FEW110 SCT250
     FM212100 28009KT P6SM BKN060 PROB30 2123/2203 6SM -SHRA SCT045
      BKN060=



000
FTUS42 KRAH 211140
TAFGSO
TAF
KGSO 211140Z 2112/2212 27007KT P6SM FEW110
     FM211900 29012G18KT P6SM BKN050
     FM212300 33009KT P6SM FEW100=



000
FTUS42 KRAH 211140
TAFFAY
TAF
KFAY 211140Z 2112/2212 26007KT P6SM FEW110
     FM220000 32008KT P6SM BKN060=



000
FTUS42 KRAH 211140
TAFINT
TAF
KINT 211140Z 2112/2212 27007KT P6SM FEW110
     FM211900 29012G18KT P6SM BKN050
     FM212300 33009KT P6SM FEW100=



000
FTUS42 KRAH 211140
TAFFAY
TAF
KFAY 211140Z 2112/2212 26007KT P6SM FEW110
     FM220000 32008KT P6SM BKN060=



000
FTUS42 KRAH 211140
TAFRDU
TAF
KRDU 211140Z 2112/2212 26007KT P6SM FEW110 SCT250
     FM212100 28009G16KT P6SM BKN060
     FM220000 33007KT P6SM SCT060 BKN080=



000
FTUS42 KRAH 211140
TAFRWI
TAF
KRWI 211140Z 2112/2212 25007KT P6SM FEW110 SCT250
     FM212100 28009KT P6SM BKN060 PROB30 2123/2203 6SM -SHRA SCT045
      BKN060=



000
FTUS42 KRAH 211140
TAFGSO
TAF
KGSO 211140Z 2112/2212 27007KT P6SM FEW110
     FM211900 29012G18KT P6SM BKN050
     FM212300 33009KT P6SM FEW100=



000
FTUS42 KRAH 211140
TAFRDU
TAF
KRDU 211140Z 2112/2212 26007KT P6SM FEW110 SCT250
     FM212100 28009G16KT P6SM BKN060
     FM220000 33007KT P6SM SCT060 BKN080=



000
FTUS42 KRAH 211140
TAFINT
TAF
KINT 211140Z 2112/2212 27007KT P6SM FEW110
     FM211900 29012G18KT P6SM BKN050
     FM212300 33009KT P6SM FEW100=



000
FTUS42 KRAH 211140
TAFINT
TAF
KINT 211140Z 2112/2212 27007KT P6SM FEW110
     FM211900 29012G18KT P6SM BKN050
     FM212300 33009KT P6SM FEW100=



000
FTUS42 KRAH 211140
TAFFAY
TAF
KFAY 211140Z 2112/2212 26007KT P6SM FEW110
     FM220000 32008KT P6SM BKN060=



000
FTUS42 KRAH 211140
TAFGSO
TAF
KGSO 211140Z 2112/2212 27007KT P6SM FEW110
     FM211900 29012G18KT P6SM BKN050
     FM212300 33009KT P6SM FEW100=



000
FTUS42 KRAH 211140
TAFRWI
TAF
KRWI 211140Z 2112/2212 25007KT P6SM FEW110 SCT250
     FM212100 28009KT P6SM BKN060 PROB30 2123/2203 6SM -SHRA SCT045
      BKN060=



000
FTUS42 KRAH 211140
TAFRDU
TAF
KRDU 211140Z 2112/2212 26007KT P6SM FEW110 SCT250
     FM212100 28009G16KT P6SM BKN060
     FM220000 33007KT P6SM SCT060 BKN080=



000
FTUS42 KRAH 210921 AAA
TAFINT
TAF AMD
KINT 210921Z 2109/2206 23004KT P6SM SKC
     FM211900 30010G18KT P6SM BKN050=



000
FTUS42 KRAH 210921 AAA
TAFINT
TAF AMD
KINT 210921Z 2109/2206 23004KT P6SM SKC
     FM211900 30010G18KT P6SM BKN050=



000
FTUS42 KRAH 210921 AAA
TAFRDU
TAF AMD
KRDU 210921Z 2109/2206 24004KT P6SM SCT110 SCT250
     FM212100 28009G16KT P6SM BKN050=



000
FTUS42 KRAH 210921 AAA
TAFGSO
TAF AMD
KGSO 210921Z 2109/2206 22004KT P6SM SKC
     FM212000 30010G18KT P6SM BKN050=



000
FTUS42 KRAH 210546 CCA
TAFFAY
TAF COR
KFAY 210546Z 2106/2206 25007KT P6SM BKN110 BKN250
      TEMPO 2106/2110 6SM -RA FEW050 OVC100=



000
FTUS42 KRAH 210546 CCA
TAFRWI
TAF COR
KRWI 210546Z 2106/2206 24004KT P6SM BKN100 BKN250
      TEMPO 2106/2109 6SM -RA FEW050 OVC100
     FM212100 28009G16KT P6SM BKN050=



000
FTUS42 KRAH 210546 CCA
TAFFAY
TAF COR
KFAY 210546Z 2106/2206 25007KT P6SM BKN110 BKN250
      TEMPO 2106/2110 6SM -RA FEW050 OVC100=



000
FTUS42 KRAH 210546 CCA
TAFRWI
TAF COR
KRWI 210546Z 2106/2206 24004KT P6SM BKN100 BKN250
      TEMPO 2106/2109 6SM -RA FEW050 OVC100
     FM212100 28009G16KT P6SM BKN050=



000
FTUS42 KRAH 210540
TAFFAY
TAF
KFAY 210540Z 2106/2206 25007KT P6SM FEW050 BKN110 BKN250=



000
FTUS42 KRAH 210540
TAFRDU
TAF
KRDU 210540Z 2106/2206 24004KT P6SM FEW050 BKN100 OVC250
     FM212100 28009G16KT P6SM BKN050=



000
FTUS42 KRAH 210540
TAFGSO
TAF
KGSO 210540Z 2106/2206 22006KT P6SM BKN100
     FM212000 30010G18KT P6SM BKN050=



000
FTUS42 KRAH 210540
TAFINT
TAF
KINT 210540Z 2106/2206 23004KT P6SM SCT110
     FM211900 30010G18KT P6SM BKN050=



000
FTUS42 KRAH 210540
TAFGSO
TAF
KGSO 210540Z 2106/2206 22006KT P6SM BKN100
     FM212000 30010G18KT P6SM BKN050=



000
FTUS42 KRAH 210540
TAFRDU
TAF
KRDU 210540Z 2106/2206 24004KT P6SM FEW050 BKN100 OVC250
     FM212100 28009G16KT P6SM BKN050=



000
FTUS42 KRAH 210540
TAFRWI
TAF
KRWI 210540Z 2106/2206 24004KT P6SM FEW050 BKN100 BKN250
     FM212100 28009G16KT P6SM BKN050=



000
FTUS42 KRAH 210540
TAFINT
TAF
KINT 210540Z 2106/2206 23004KT P6SM SCT110
     FM211900 30010G18KT P6SM BKN050=



000
FTUS42 KRAH 210540
TAFRWI
TAF
KRWI 210540Z 2106/2206 24004KT P6SM FEW050 BKN100 BKN250
     FM212100 28009G16KT P6SM BKN050=



000
FTUS42 KRAH 210540
TAFFAY
TAF
KFAY 210540Z 2106/2206 25007KT P6SM FEW050 BKN110 BKN250=



000
FTUS42 KRAH 210230 AAA
TAFGSO
TAF AMD
KGSO 210230Z 2103/2124 22006KT P6SM OVC100
     FM210800 25005KT P6SM SCT100
     FM211800 30010G18KT P6SM BKN050
     FM212300 31010KT P6SM SCT250=



000
FTUS42 KRAH 210230 AAA
TAFGSO
TAF AMD
KGSO 210230Z 2103/2124 22006KT P6SM OVC100
     FM210800 25005KT P6SM SCT100
     FM211800 30010G18KT P6SM BKN050
     FM212300 31010KT P6SM SCT250=



000
FTUS42 KRAH 210230 AAA
TAFRDU
TAF AMD
KRDU 210230Z 2103/2124 21005KT P6SM SCT150
     FM210600 22004KT P6SM OVC100
     FM211200 27007KT P6SM SCT050 SCT100
     FM212000 30010G15KT P6SM BKN050=



000
FTUS42 KRAH 210230 AAA
TAFRDU
TAF AMD
KRDU 210230Z 2103/2124 21005KT P6SM SCT150
     FM210600 22004KT P6SM OVC100
     FM211200 27007KT P6SM SCT050 SCT100
     FM212000 30010G15KT P6SM BKN050=



000
FTUS42 KRAH 202334
TAFINT
TAF
KINT 202334Z 2100/2124 22006KT P6SM OVC100
     FM210800 25005KT P6SM SCT100
     FM211800 30010G18KT P6SM BKN050
     FM212300 31010KT P6SM SCT250=



000
FTUS42 KRAH 202334
TAFRWI
TAF
KRWI 202334Z 2100/2124 21005KT P6SM SCT150
     FM210900 22004KT P6SM OVC100
     FM211400 27007KT P6SM SCT050 SCT100
     FM212100 30012KT P6SM BKN050=



000
FTUS42 KRAH 202334
TAFRDU
TAF
KRDU 202334Z 2100/2124 21005KT P6SM SCT150
     FM210600 22004KT P6SM OVC100
     FM211200 27007KT P6SM SCT050 SCT100
     FM212000 30010G15KT P6SM BKN050=



000
FTUS42 KRAH 202334
TAFGSO
TAF
KGSO 202334Z 2100/2124 22006KT P6SM OVC100
     FM210800 25005KT P6SM SCT100
     FM211800 30010G18KT P6SM BKN050
     FM212300 31010KT P6SM SCT250=



000
FTUS42 KRAH 202334
TAFFAY
TAF
KFAY 202334Z 2100/2124 21005KT P6SM SCT150
     FM210900 22004KT P6SM OVC100
     FM211400 27007KT P6SM SCT050 SCT100
     FM212100 30012KT P6SM BKN050=



000
FTUS42 KRAH 202334
TAFRDU
TAF
KRDU 202334Z 2100/2124 21005KT P6SM SCT150
     FM210600 22004KT P6SM OVC100
     FM211200 27007KT P6SM SCT050 SCT100
     FM212000 30010G15KT P6SM BKN050=



000
FTUS42 KRAH 202334
TAFRWI
TAF
KRWI 202334Z 2100/2124 21005KT P6SM SCT150
     FM210900 22004KT P6SM OVC100
     FM211400 27007KT P6SM SCT050 SCT100
     FM212100 30012KT P6SM BKN050=



000
FTUS42 KRAH 202334
TAFFAY
TAF
KFAY 202334Z 2100/2124 21005KT P6SM SCT150
     FM210900 22004KT P6SM OVC100
     FM211400 27007KT P6SM SCT050 SCT100
     FM212100 30012KT P6SM BKN050=



000
FTUS42 KRAH 202334
TAFINT
TAF
KINT 202334Z 2100/2124 22006KT P6SM OVC100
     FM210800 25005KT P6SM SCT100
     FM211800 30010G18KT P6SM BKN050
     FM212300 31010KT P6SM SCT250=



000
FTUS42 KRAH 202334
TAFGSO
TAF
KGSO 202334Z 2100/2124 22006KT P6SM OVC100
     FM210800 25005KT P6SM SCT100
     FM211800 30010G18KT P6SM BKN050
     FM212300 31010KT P6SM SCT250=



000
FTUS42 KRAH 202028 AAB
TAFGSO
TAF AMD
KGSO 202028Z 2020/2118 23010KT P6SM SCT250
     FM202300 22006KT P6SM OVC100
     FM210800 29005KT P6SM SKC
     FM211700 30010KT P6SM BKN050=



000
FTUS42 KRAH 202028 AAA
TAFINT
TAF AMD
KINT 202028Z 2020/2118 21010KT P6SM SCT250
     FM202300 22006KT P6SM OVC100
     FM210800 29005KT P6SM SKC
     FM211700 30010KT P6SM BKN050=



000
FTUS42 KRAH 202028 AAA
TAFINT
TAF AMD
KINT 202028Z 2020/2118 21010KT P6SM SCT250
     FM202300 22006KT P6SM OVC100
     FM210800 29005KT P6SM SKC
     FM211700 30010KT P6SM BKN050=



000
FTUS42 KRAH 201758 AAA
TAFGSO
TAF AMD
KGSO 201758Z 2018/2118 23010G16KT P6SM SCT250
     FM202300 22006KT P6SM OVC100
     FM210800 29005KT P6SM SKC
     FM211700 30010KT P6SM BKN050=



000
FTUS42 KRAH 201758 AAA
TAFGSO
TAF AMD
KGSO 201758Z 2018/2118 23010G16KT P6SM SCT250
     FM202300 22006KT P6SM OVC100
     FM210800 29005KT P6SM SKC
     FM211700 30010KT P6SM BKN050=



000
FTUS42 KRAH 201721
TAFINT
TAF
KINT 201721Z 2018/2118 21010G16KT P6SM SCT250
     FM202300 22006KT P6SM OVC100
     FM210800 29005KT P6SM SKC
     FM211700 30010KT P6SM BKN050=



000
FTUS42 KRAH 201721
TAFGSO
TAF
KGSO 201721Z 2018/2118 21010G16KT P6SM SCT250
     FM202300 22006KT P6SM OVC100
     FM210800 29005KT P6SM SKC
     FM211700 30010KT P6SM BKN050=



000
FTUS42 KRAH 201721
TAFINT
TAF
KINT 201721Z 2018/2118 21010G16KT P6SM SCT250
     FM202300 22006KT P6SM OVC100
     FM210800 29005KT P6SM SKC
     FM211700 30010KT P6SM BKN050=



000
FTUS42 KRAH 201721
TAFRWI
TAF
KRWI 201721Z 2018/2118 21009G17KT P6SM SCT250
      TEMPO 2020/2024 BKN045
     FM210000 22005KT P6SM SCT250
     FM210600 25005KT P6SM BKN120
     FM211600 27007KT P6SM FEW050=



000
FTUS42 KRAH 201721
TAFRWI
TAF
KRWI 201721Z 2018/2118 21009G17KT P6SM SCT250
      TEMPO 2020/2024 BKN045
     FM210000 22005KT P6SM SCT250
     FM210600 25005KT P6SM BKN120
     FM211600 27007KT P6SM FEW050=



000
FTUS42 KRAH 201721
TAFRDU
TAF
KRDU 201721Z 2018/2118 23008G16KT P6SM SCT250
     FM202300 21005KT P6SM SCT040
     FM210400 25004KT P6SM OVC120
     FM211500 28007KT P6SM FEW050=



000
FTUS42 KRAH 201721
TAFGSO
TAF
KGSO 201721Z 2018/2118 21010G16KT P6SM SCT250
     FM202300 22006KT P6SM OVC100
     FM210800 29005KT P6SM SKC
     FM211700 30010KT P6SM BKN050=



000
FTUS42 KRAH 201721
TAFFAY
TAF
KFAY 201721Z 2018/2118 21009G16KT P6SM SCT045
     FM202300 20005KT P6SM FEW045
     FM211600 29006KT P6SM SCT045=



000
FTUS42 KRAH 201721
TAFRDU
TAF
KRDU 201721Z 2018/2118 23008G16KT P6SM SCT250
     FM202300 21005KT P6SM SCT040
     FM210400 25004KT P6SM OVC120
     FM211500 28007KT P6SM FEW050=



000
FTUS42 KRAH 201721
TAFFAY
TAF
KFAY 201721Z 2018/2118 21009G16KT P6SM SCT045
     FM202300 20005KT P6SM FEW045
     FM211600 29006KT P6SM SCT045=



000
FTUS42 KRAH 201707 AAA
TAFGSO
TAF AMD
KGSO 201707Z 2017/2112 23010G18KT P6SM SCT250
     FM202300 24006KT P6SM BKN120
     FM210600 27004KT P6SM FEW250=



000
FTUS42 KRAH 201707 AAA
TAFGSO
TAF AMD
KGSO 201707Z 2017/2112 23010G18KT P6SM SCT250
     FM202300 24006KT P6SM BKN120
     FM210600 27004KT P6SM FEW250=



000
FTUS42 KRAH 201602 AAA
TAFRDU
TAF AMD
KRDU 201602Z 2016/2112 22010G16KT P6SM SCT250
     FM202300 20005KT P6SM SCT040
     FM210400 25004KT P6SM OVC120=



000
FTUS42 KRAH 201602 AAA
TAFRDU
TAF AMD
KRDU 201602Z 2016/2112 22010G16KT P6SM SCT250
     FM202300 20005KT P6SM SCT040
     FM210400 25004KT P6SM OVC120=



000
FTUS42 KRAH 201120
TAFRDU
TAF
KRDU 201120Z 2012/2112 20005KT P6SM SCT250
     FM201600 21009KT P6SM BKN250=



000
FTUS42 KRAH 201120
TAFGSO
TAF
KGSO 201120Z 2012/2112 20005KT P6SM SCT250
     FM201500 21010KT P6SM SCT250
      TEMPO 2015/2019 21011G17KT=



000
FTUS42 KRAH 201120
TAFRWI
TAF
KRWI 201120Z 2012/2112 19005KT P6SM SCT250
     FM201700 20008KT P6SM SCT040 BKN250=



000
FTUS42 KRAH 201120
TAFRWI
TAF
KRWI 201120Z 2012/2112 19005KT P6SM SCT250
     FM201700 20008KT P6SM SCT040 BKN250=



000
FTUS42 KRAH 201120
TAFFAY
TAF
KFAY 201120Z 2012/2112 19005KT P6SM SCT250
     FM201600 20009KT P6SM SCT040 BKN250=



000
FTUS42 KRAH 201120
TAFRDU
TAF
KRDU 201120Z 2012/2112 20005KT P6SM SCT250
     FM201600 21009KT P6SM BKN250=



000
FTUS42 KRAH 201120
TAFGSO
TAF
KGSO 201120Z 2012/2112 20005KT P6SM SCT250
     FM201500 21010KT P6SM SCT250
      TEMPO 2015/2019 21011G17KT=



000
FTUS42 KRAH 201120
TAFINT
TAF
KINT 201120Z 2012/2112 20005KT P6SM BKN250
     FM201500 21010KT P6SM SCT250
      TEMPO 2015/2019 21011G17KT=



000
FTUS42 KRAH 201120
TAFFAY
TAF
KFAY 201120Z 2012/2112 19005KT P6SM SCT250
     FM201600 20009KT P6SM SCT040 BKN250=



000
FTUS42 KRAH 201120
TAFINT
TAF
KINT 201120Z 2012/2112 20005KT P6SM BKN250
     FM201500 21010KT P6SM SCT250
      TEMPO 2015/2019 21011G17KT=



000
FTUS42 KRAH 200900 AAA
TAFRDU
TAF AMD
KRDU 200900Z 2009/2106 00000KT P6SM BKN250
     FM201600 21009KT P6SM BKN250=



000
FTUS42 KRAH 200900 AAA
TAFGSO
TAF AMD
KGSO 200900Z 2009/2106 00000KT P6SM BKN250
     FM201500 21010KT P6SM SCT250
      TEMPO 2015/2019 21011G17KT=



000
FTUS42 KRAH 200900 AAA
TAFGSO
TAF AMD
KGSO 200900Z 2009/2106 00000KT P6SM BKN250
     FM201500 21010KT P6SM SCT250
      TEMPO 2015/2019 21011G17KT=



000
FTUS42 KRAH 200900 AAA
TAFINT
TAF AMD
KINT 200900Z 2009/2106 00000KT P6SM BKN250
     FM201500 21010KT P6SM SCT250
      TEMPO 2015/2019 21011G17KT=



000
FTUS42 KRAH 200900 AAA
TAFRDU
TAF AMD
KRDU 200900Z 2009/2106 00000KT P6SM BKN250
     FM201600 21009KT P6SM BKN250=



000
FTUS42 KRAH 200900 AAA
TAFINT
TAF AMD
KINT 200900Z 2009/2106 00000KT P6SM BKN250
     FM201500 21010KT P6SM SCT250
      TEMPO 2015/2019 21011G17KT=



000
FTUS42 KRAH 200811 AAA
TAFRWI
TAF AMD
KRWI 200811Z 2008/2106 00000KT P6SM SCT250
      TEMPO 2008/2011 3/4SM BR SCT001
     FM201700 20008KT P6SM SCT040 BKN250=



000
FTUS42 KRAH 200811 AAA
TAFRWI
TAF AMD
KRWI 200811Z 2008/2106 00000KT P6SM SCT250
      TEMPO 2008/2011 3/4SM BR SCT001
     FM201700 20008KT P6SM SCT040 BKN250=



000
FTUS42 KRAH 200540
TAFGSO
TAF
KGSO 200540Z 2006/2106 00000KT P6SM BKN250
     FM201500 21010KT P6SM SCT250
      TEMPO 2015/2019 21011G17KT=



000
FTUS42 KRAH 200540
TAFRWI
TAF
KRWI 200540Z 2006/2106 00000KT P6SM SCT250
     FM201700 20008KT P6SM SCT040 BKN250=



000
FTUS42 KRAH 200540
TAFINT
TAF
KINT 200540Z 2006/2106 00000KT P6SM BKN250
     FM201500 21010KT P6SM SCT250
      TEMPO 2015/2019 21011G17KT=



000
FTUS42 KRAH 200540
TAFRDU
TAF
KRDU 200540Z 2006/2106 00000KT P6SM BKN250
     FM201600 21009KT P6SM BKN250=



000
FTUS42 KRAH 200540
TAFFAY
TAF
KFAY 200540Z 2006/2106 00000KT P6SM SCT250
     FM201600 20009KT P6SM SCT040 BKN250=



000
FTUS42 KRAH 200540
TAFFAY
TAF
KFAY 200540Z 2006/2106 00000KT P6SM SCT250
     FM201600 20009KT P6SM SCT040 BKN250=



000
FTUS42 KRAH 200540
TAFINT
TAF
KINT 200540Z 2006/2106 00000KT P6SM BKN250
     FM201500 21010KT P6SM SCT250
      TEMPO 2015/2019 21011G17KT=



000
FTUS42 KRAH 200540
TAFRWI
TAF
KRWI 200540Z 2006/2106 00000KT P6SM SCT250
     FM201700 20008KT P6SM SCT040 BKN250=



000
FTUS42 KRAH 200540
TAFGSO
TAF
KGSO 200540Z 2006/2106 00000KT P6SM BKN250
     FM201500 21010KT P6SM SCT250
      TEMPO 2015/2019 21011G17KT=



000
FTUS42 KRAH 200540
TAFRDU
TAF
KRDU 200540Z 2006/2106 00000KT P6SM BKN250
     FM201600 21009KT P6SM BKN250=



000
FTUS42 KRAH 200540
TAFGSO
TAF
KGSO 200540Z 2006/2106 00000KT P6SM BKN250
     FM201500 21010KT P6SM SCT250
      TEMPO 2015/2019 21011G17KT=



000
FTUS42 KRAH 200540
TAFINT
TAF
KINT 200540Z 2006/2106 00000KT P6SM BKN250
     FM201500 21010KT P6SM SCT250
      TEMPO 2015/2019 21011G17KT=



000
FTUS42 KRAH 200540
TAFFAY
TAF
KFAY 200540Z 2006/2106 00000KT P6SM SCT250
     FM201600 20009KT P6SM SCT040 BKN250=



000
FTUS42 KRAH 200540
TAFRDU
TAF
KRDU 200540Z 2006/2106 00000KT P6SM BKN250
     FM201600 21009KT P6SM BKN250=



000
FTUS42 KRAH 200540
TAFRWI
TAF
KRWI 200540Z 2006/2106 00000KT P6SM SCT250
     FM201700 20008KT P6SM SCT040 BKN250=



000
FTUS42 KRAH 200146 AAA
TAFRDU
TAF AMD
KRDU 200146Z 2002/2024 VRB02KT P6SM FEW250
     FM201600 22009KT P6SM BKN250=



000
FTUS42 KRAH 200146 AAA
TAFRDU
TAF AMD
KRDU 200146Z 2002/2024 VRB02KT P6SM FEW250
     FM201600 22009KT P6SM BKN250=



000
FTUS42 KRAH 200145 AAA
TAFGSO
TAF AMD
KGSO 200145Z 2002/2024 VRB03KT P6SM SCT250
     FM201600 22009G16KT P6SM BKN250=



000
FTUS42 KRAH 200145 AAA
TAFGSO
TAF AMD
KGSO 200145Z 2002/2024 VRB03KT P6SM SCT250
     FM201600 22009G16KT P6SM BKN250=



000
FTUS42 KRAH 192320
TAFFAY
TAF
KFAY 192320Z 2000/2024 VRB03KT P6SM FEW250
     FM201700 20008KT P6SM FEW040 BKN250=



000
FTUS42 KRAH 192320
TAFRDU
TAF
KRDU 192320Z 2000/2024 VRB02KT P6SM FEW250
     FM201600 22009KT P6SM BKN250=



000
FTUS42 KRAH 192320
TAFRWI
TAF
KRWI 192320Z 2000/2024 VRB02KT P6SM FEW250
     FM201700 20007KT P6SM FEW040 BKN250=



000
FTUS42 KRAH 192320
TAFGSO
TAF
KGSO 192320Z 2000/2024 VRB03KT P6SM SCT250
     FM201600 22009G16KT P6SM BKN250=



000
FTUS42 KRAH 192320
TAFRWI
TAF
KRWI 192320Z 2000/2024 VRB02KT P6SM FEW250
     FM201700 20007KT P6SM FEW040 BKN250=



000
FTUS42 KRAH 192320
TAFINT
TAF
KINT 192320Z 2000/2024 VRB03KT P6SM SCT250
     FM201600 22009G16KT P6SM BKN250=



000
FTUS42 KRAH 192320
TAFFAY
TAF
KFAY 192320Z 2000/2024 VRB03KT P6SM FEW250
     FM201700 20008KT P6SM FEW040 BKN250=



000
FTUS42 KRAH 192320
TAFRDU
TAF
KRDU 192320Z 2000/2024 VRB02KT P6SM FEW250
     FM201600 22009KT P6SM BKN250=



000
FTUS42 KRAH 192320
TAFRDU
TAF
KRDU 192320Z 2000/2024 VRB02KT P6SM FEW250
     FM201600 22009KT P6SM BKN250=



000
FTUS42 KRAH 192320
TAFFAY
TAF
KFAY 192320Z 2000/2024 VRB03KT P6SM FEW250
     FM201700 20008KT P6SM FEW040 BKN250=



000
FTUS42 KRAH 192320
TAFINT
TAF
KINT 192320Z 2000/2024 VRB03KT P6SM SCT250
     FM201600 22009G16KT P6SM BKN250=



000
FTUS42 KRAH 192320
TAFRWI
TAF
KRWI 192320Z 2000/2024 VRB02KT P6SM FEW250
     FM201700 20007KT P6SM FEW040 BKN250=



000
FTUS42 KRAH 192320
TAFGSO
TAF
KGSO 192320Z 2000/2024 VRB03KT P6SM SCT250
     FM201600 22009G16KT P6SM BKN250=



000
FTUS42 KRAH 192320
TAFFAY
TAF
KFAY 192320Z 2000/2024 VRB03KT P6SM FEW250
     FM201700 20008KT P6SM FEW040 BKN250=



000
FTUS42 KRAH 192320
TAFGSO
TAF
KGSO 192320Z 2000/2024 VRB03KT P6SM SCT250
     FM201600 22009G16KT P6SM BKN250=



000
FTUS42 KRAH 192320
TAFRDU
TAF
KRDU 192320Z 2000/2024 VRB02KT P6SM FEW250
     FM201600 22009KT P6SM BKN250=



000
FTUS42 KRAH 192320
TAFRWI
TAF
KRWI 192320Z 2000/2024 VRB02KT P6SM FEW250
     FM201700 20007KT P6SM FEW040 BKN250=



000
FTUS42 KRAH 192320
TAFINT
TAF
KINT 192320Z 2000/2024 VRB03KT P6SM SCT250
     FM201600 22009G16KT P6SM BKN250=



000
FTUS42 KRAH 192320
TAFINT
TAF
KINT 192320Z 2000/2024 VRB03KT P6SM SCT250
     FM201600 22009G16KT P6SM BKN250=



000
FTUS42 KRAH 192320
TAFGSO
TAF
KGSO 192320Z 2000/2024 VRB03KT P6SM SCT250
     FM201600 22009G16KT P6SM BKN250=



000
FTUS42 KRAH 191723
TAFFAY
TAF
KFAY 191723Z 1918/2018 34009KT P6SM SKC
     FM192300 VRB04KT P6SM SKC
     FM201600 19008G15KT P6SM SCT035 SCT250=



000
FTUS42 KRAH 191723
TAFINT
TAF
KINT 191723Z 1918/2018 36006KT P6SM SKC
     FM200800 18003KT P6SM BKN250
     FM201600 21009G17KT P6SM BKN250=



000
FTUS42 KRAH 191723
TAFRDU
TAF
KRDU 191723Z 1918/2018 34007KT P6SM SKC
     FM200000 VRB03KT P6SM SKC
     FM201600 19008G16KT P6SM SCT250=



000
FTUS42 KRAH 191723
TAFRWI
TAF
KRWI 191723Z 1918/2018 34009KT P6SM FEW045
      TEMPO 1918/1920 33009G16KT
     FM192300 VRB03KT P6SM SKC
     FM201600 21008G15KT P6SM SCT250=



000
FTUS42 KRAH 191723
TAFGSO
TAF
KGSO 191723Z 1918/2018 36006KT P6SM SKC
     FM200800 18003KT P6SM BKN250
     FM201600 21009G17KT P6SM BKN250=



000
FTUS42 KRAH 191723
TAFGSO
TAF
KGSO 191723Z 1918/2018 36006KT P6SM SKC
     FM200800 18003KT P6SM BKN250
     FM201600 21009G17KT P6SM BKN250=



000
FTUS42 KRAH 191723
TAFFAY
TAF
KFAY 191723Z 1918/2018 34009KT P6SM SKC
     FM192300 VRB04KT P6SM SKC
     FM201600 19008G15KT P6SM SCT035 SCT250=



000
FTUS42 KRAH 191723
TAFRDU
TAF
KRDU 191723Z 1918/2018 34007KT P6SM SKC
     FM200000 VRB03KT P6SM SKC
     FM201600 19008G16KT P6SM SCT250=



000
FTUS42 KRAH 191723
TAFINT
TAF
KINT 191723Z 1918/2018 36006KT P6SM SKC
     FM200800 18003KT P6SM BKN250
     FM201600 21009G17KT P6SM BKN250=



000
FTUS42 KRAH 191723
TAFRWI
TAF
KRWI 191723Z 1918/2018 34009KT P6SM FEW045
      TEMPO 1918/1920 33009G16KT
     FM192300 VRB03KT P6SM SKC
     FM201600 21008G15KT P6SM SCT250=



000
FTUS42 KRAH 191702 AAA
TAFRWI
TAF AMD
KRWI 191702Z 1917/2012 33010G18KT P6SM SKC
     FM192000 34007KT P6SM SKC=



000
FTUS42 KRAH 191702 AAA
TAFRWI
TAF AMD
KRWI 191702Z 1917/2012 33010G18KT P6SM SKC
     FM192000 34007KT P6SM SKC=



    US Dept of Commerce
    National Oceanic and Atmospheric Administration
    National Weather Service
    1325 East West Highway
    Silver Spring, MD 20910
    Page Author: NWS Internet Services Team
Disclaimer
Information Quality
Credits
Glossary
Privacy Policy
Freedom of Information Act (FOIA)
About Us
Career Opportunities